Genoa, Arkansas
Current Conditions -  °F | °C
As of 4:53 PM on Monday 22 Dec 2014 (Local Time) from KTXK Reporting Station
Clear Clear  
Wind Chill: 60°   Ceiling: Unl
Heat Index: 60°   Visibility: 9mi
Dew Point: 56°   Wind: 5mph
Humidity: 86%   Direction: 130°SE
Pressure: 29.56"   Gusts: NA
Location:  33.38°N, 93.91°W
Report Text: KTXK 222253Z 13004KT 9SM CLR 16/13 A2956 RMK AO2 SLP006 T01560133
Loading
Personal Weather Stations






























Interactive Weather Map New forecast layout! Learn more

10-Day Weather Forecast

Advertisements
Track Severe Weather on mobile